Time;durP1;ratioP1;P1;durP2;ratioP2;P2;SDS_P1;SDS_P2;PMS_P1;PMS_P2;Temp;Humidity;BMP_temperature;BMP_pressure;BME280_temperature;BME280_humidity;BME280_pressure;Samples;Min_cycle;Max_cycle;Signal;HPM_P1;HPM_P2
2023/08/22 00:01:36;;;;;;;5.20;2.58;;;18.20;29.00;;;;;;20834461;28;20037;-44
2023/08/22 00:11:37;;;;;;;3.58;2.25;;;18.10;23.90;;;;;;20858404;28;20048;-44
2023/08/22 00:21:38;;;;;;;5.63;2.90;;;17.90;26.30;;;;;;20855795;28;20061;-44
2023/08/22 00:31:38;;;;;;;7.32;3.05;;;17.90;37.00;;;;;;20850491;28;20060;-44
2023/08/22 00:41:39;;;;;;;5.22;2.88;;;18.00;37.00;;;;;;20850370;28;20045;-44
2023/08/22 00:51:40;;;;;;;4.22;2.80;;;17.90;37.70;;;;;;20852697;28;20090;-44
2023/08/22 01:01:40;;;;;;;4.90;2.60;;;17.70;39.30;;;;;;20829374;28;20102;-43
2023/08/22 01:11:46;;;;;;;5.25;2.90;;;17.70;42.10;;;;;;20848029;28;20056;-44
2023/08/22 01:21:50;;;;;;;7.53;3.28;;;17.60;46.90;;;;;;20848112;28;20047;-44
2023/08/22 01:31:56;;;;;;;6.78;2.97;;;17.50;59.80;;;;;;20850116;28;20632;-44
2023/08/22 01:41:58;;;;;;;7.47;2.95;;;17.60;57.50;;;;;;20848029;28;20037;-44
2023/08/22 01:51:58;;;;;;;6.05;3.30;;;17.40;43.40;;;;;;20846046;28;20048;-44
2023/08/22 02:01:59;;;;;;;9.38;5.57;;;17.40;35.10;;;;;;20841275;28;20064;-44
2023/08/22 02:11:59;;;;;;;7.75;4.20;;;17.40;30.00;;;;;;20845164;28;20300;-44
2023/08/22 02:22:00;;;;;;;7.55;5.07;;;17.40;38.40;;;;;;20841209;28;20151;-43
2023/08/22 02:32:00;;;;;;;9.32;5.82;;;17.30;37.40;;;;;;20841902;28;20057;-44
2023/08/22 02:42:01;;;;;;;8.45;5.30;;;17.20;52.30;;;;;;20841804;28;20044;-44
2023/08/22 02:52:02;;;;;;;9.38;6.28;;;17.10;46.90;;;;;;20840631;28;20484;-43
2023/08/22 03:02:03;;;;;;;13.57;8.88;;;17.10;41.40;;;;;;20843503;28;20558;-43
2023/08/22 03:12:04;;;;;;;13.20;8.80;;;17.10;49.70;;;;;;20847172;28;20811;-44
2023/08/22 03:22:05;;;;;;;14.60;9.05;;;17.00;55.10;;;;;;20834918;28;20862;-44
2023/08/22 03:32:06;;;;;;;13.07;8.98;;;17.20;59.20;;;;;;20846535;28;20156;-44
2023/08/22 03:42:06;;;;;;;16.45;9.88;;;17.10;73.90;;;;;;20855857;28;20033;-43
2023/08/22 03:52:07;;;;;;;14.30;9.37;;;17.00;71.10;;;;;;20869390;28;20045;-43
2023/08/22 04:02:08;;;;;;;16.53;9.80;;;16.90;60.80;;;;;;20867878;28;20037;-43
2023/08/22 04:12:08;;;;;;;13.93;9.18;;;16.90;60.60;;;;;;20867983;28;20045;-44
2023/08/22 04:22:09;;;;;;;12.10;8.65;;;16.90;68.90;;;;;;20869160;28;20033;-44
2023/08/22 04:32:09;;;;;;;13.93;9.75;;;16.90;62.50;;;;;;20854376;28;20033;-43
2023/08/22 04:42:10;;;;;;;15.88;9.65;;;17.10;87.40;;;;;;20860253;28;20045;-43
2023/08/22 04:52:10;;;;;;;11.90;8.75;;;17.10;99.90;;;;;;20857974;28;20044;-43
2023/08/22 05:02:11;;;;;;;16.20;10.65;;;16.80;99.90;;;;;;20850651;28;20047;-43
2023/08/22 05:12:11;;;;;;;11.90;8.57;;;16.70;99.90;;;;;;20843629;28;20036;-43
2023/08/22 05:22:12;;;;;;;15.82;10.77;;;16.60;99.90;;;;;;20846755;28;20044;-43
2023/08/22 05:32:13;;;;;;;13.80;8.95;;;16.60;99.90;;;;;;20847109;28;20131;-43
2023/08/22 05:42:13;;;;;;;14.82;9.85;;;16.60;99.90;;;;;;20842422;28;20045;-43
2023/08/22 05:52:14;;;;;;;17.05;9.98;;;16.80;99.90;;;;;;20845149;28;20096;-43
2023/08/22 06:02:15;;;;;;;14.00;9.38;;;17.10;99.90;;;;;;20837797;28;20045;-43
2023/08/22 06:12:16;;;;;;;14.40;8.27;;;17.40;99.90;;;;;;20847411;28;20052;-43
2023/08/22 06:22:16;;;;;;;10.35;7.60;;;17.80;52.10;;;;;;20837479;28;20481;-43
2023/08/22 06:32:21;;;;;;;15.88;8.88;;;18.20;18.70;;;;;;20845442;28;20079;-43
2023/08/22 06:42:21;;;;;;;12.75;9.05;;;18.50;5.60;;;;;;20856422;28;20136;-43
2023/08/22 06:52:22;;;;;;;16.08;9.27;;;18.40;1.00;;;;;;20825628;28;20048;-43
2023/08/22 07:02:22;;;;;;;15.85;8.57;;;18.50;3.90;;;;;;20845407;28;21812;-43
2023/08/22 07:12:23;;;;;;;15.53;8.03;;;18.70;1.00;;;;;;20843424;28;20040;-44
2023/08/22 07:22:24;;;;;;;13.15;7.05;;;19.00;1.00;;;;;;20863124;28;20370;-43
2023/08/22 07:32:24;;;;;;;11.68;5.97;;;19.50;1.00;;;;;;20844152;28;20095;-44
2023/08/22 07:42:25;;;;;;;9.60;5.05;;;19.70;1.00;;;;;;20849978;28;20099;-43
2023/08/22 07:52:25;;;;;;;10.30;5.88;;;19.80;1.00;;;;;;20860182;28;20833;-44
2023/08/22 08:02:27;;;;;;;9.98;5.95;;;20.00;1.00;;;;;;20859570;28;20234;-44
2023/08/22 08:12:28;;;;;;;11.35;5.88;;;20.10;1.00;;;;;;20851986;28;20431;-44
2023/08/22 08:22:29;;;;;;;10.70;6.15;;;20.30;1.00;;;;;;20860106;28;20068;-43
2023/08/22 08:32:29;;;;;;;10.68;5.75;;;20.50;1.00;;;;;;20876154;28;20037;-44
2023/08/22 08:42:30;;;;;;;10.20;6.03;;;20.90;1.00;;;;;;20879000;28;20446;-44
2023/08/22 08:52:31;;;;;;;9.75;5.90;;;21.10;1.00;;;;;;20873952;28;20076;-44
2023/08/22 09:02:32;;;;;;;8.80;5.25;;;21.50;1.00;;;;;;20874662;28;20033;-44
2023/08/22 09:12:34;;;;;;;9.05;4.80;;;21.70;1.00;;;;;;20869880;28;20056;-44
2023/08/22 09:22:35;;;;;;;13.15;5.47;;;21.70;1.00;;;;;;20864893;28;20183;-44
2023/08/22 09:32:35;;;;;;;10.57;5.65;;;21.90;1.00;;;;;;20870954;28;20044;-44
2023/08/22 09:42:40;;;;;;;10.60;5.70;;;21.80;1.00;;;;;;20869191;28;20464;-44
2023/08/22 09:52:40;;;;;;;9.75;5.85;;;21.90;1.00;;;;;;20868238;28;20053;-44
2023/08/22 10:02:42;;;;;;;9.73;6.00;;;21.90;1.00;;;;;;20865730;28;20052;-44
2023/08/22 10:12:44;;;;;;;9.02;5.82;;;22.20;1.00;;;;;;20869310;28;20044;-44
2023/08/22 10:22:44;;;;;;;9.75;5.63;;;22.70;1.00;;;;;;20861954;28;20036;-44
2023/08/22 10:33:05;;;;;;;5.13;2.88;;;22.70;1.00;;;;;;20861504;28;20055;-44
2023/08/22 10:43:11;;;;;;;10.25;4.32;;;22.60;1.00;;;;;;20856461;28;20111;-43
2023/08/22 10:53:42;;;;;;;4.70;2.25;;;22.80;1.00;;;;;;20867225;28;20076;-44
2023/08/22 11:03:46;;;;;;;13.60;9.38;;;22.80;1.00;;;;;;20866122;28;20041;-44
2023/08/22 11:13:47;;;;;;;3.17;1.33;;;23.10;1.00;;;;;;20867856;28;20072;-44
2023/08/22 11:23:47;;;;;;;5.00;1.90;;;23.10;1.00;;;;;;20841692;28;20504;-44
2023/08/22 11:33:49;;;;;;;3.53;1.43;;;23.10;1.00;;;;;;20864669;28;20520;-44
2023/08/22 11:43:51;;;;;;;4.97;1.20;;;23.00;1.00;;;;;;20866489;28;20071;-44
2023/08/22 11:53:52;;;;;;;5.72;2.10;;;23.10;1.00;;;;;;20858445;28;20629;-44
2023/08/22 12:03:58;;;;;;;3.42;1.27;;;23.30;1.00;;;;;;20868627;28;20041;-44
2023/08/22 12:13:59;;;;;;;4.43;1.40;;;23.30;1.00;;;;;;20878693;28;20048;-44
2023/08/22 12:23:59;;;;;;;3.80;1.20;;;23.20;1.00;;;;;;20872681;28;20061;-44
2023/08/22 12:34:00;;;;;;;7.88;2.15;;;23.30;1.00;;;;;;20872273;28;20059;-44
2023/08/22 12:44:01;;;;;;;4.70;1.80;;;23.70;1.00;;;;;;20875609;28;20452;-44
2023/08/22 12:54:02;;;;;;;3.92;1.30;;;24.60;1.00;;;;;;20873160;28;20040;-44
2023/08/22 13:04:12;;;;;;;5.70;2.17;;;24.90;1.00;;;;;;20869580;28;20080;-44
2023/08/22 13:14:12;;;;;;;6.30;1.75;;;24.60;1.00;;;;;;20872946;28;20053;-45
2023/08/22 13:24:13;;;;;;;3.70;1.55;;;24.50;1.00;;;;;;20861170;28;20040;-45
2023/08/22 13:34:14;;;;;;;5.10;1.75;;;25.00;1.00;;;;;;20870220;28;20492;-44
2023/08/22 13:44:14;;;;;;;4.15;1.80;;;24.70;1.00;;;;;;20867656;28;20791;-44
2023/08/22 13:54:16;;;;;;;6.03;1.48;;;25.20;1.00;;;;;;20871771;28;20468;-45
2023/08/22 14:04:19;;;;;;;5.10;1.10;;;25.40;1.00;;;;;;20865020;28;20048;-44
2023/08/22 14:14:20;;;;;;;2.05;0.73;;;25.40;1.00;;;;;;20867709;28;20072;-44
2023/08/22 14:24:20;;;;;;;3.25;0.80;;;25.40;1.00;;;;;;20857758;28;20037;-45
2023/08/22 14:34:21;;;;;;;2.38;0.75;;;25.40;1.00;;;;;;20856392;28;20056;-45
2023/08/22 14:44:22;;;;;;;3.45;1.50;;;25.20;1.00;;;;;;20857393;28;20037;-44
2023/08/22 14:54:22;;;;;;;1.75;0.75;;;25.20;1.00;;;;;;20859741;28;20045;-44
2023/08/22 15:04:24;;;;;;;2.38;0.70;;;24.90;1.00;;;;;;20855526;28;20033;-44
2023/08/22 15:14:26;;;;;;;1.83;0.60;;;25.00;1.00;;;;;;20864498;28;20067;-44
2023/08/22 15:24:26;;;;;;;3.63;0.95;;;24.70;1.00;;;;;;20834222;28;20432;-44
2023/08/22 15:34:27;;;;;;;2.15;0.80;;;24.70;1.00;;;;;;20774650;28;20109;-44
2023/08/22 15:44:27;;;;;;;4.65;1.45;;;24.70;1.00;;;;;;20800828;28;20094;-44
2023/08/22 15:54:28;;;;;;;4.13;1.60;;;24.40;1.00;;;;;;20798672;28;20069;-44
2023/08/22 16:04:29;;;;;;;3.90;1.92;;;24.20;1.00;;;;;;20798577;28;20533;-44
2023/08/22 16:14:29;;;;;;;4.50;1.42;;;24.20;1.00;;;;;;20776261;28;20397;-44
2023/08/22 16:24:30;;;;;;;3.95;1.80;;;23.80;1.00;;;;;;20789854;28;20044;-44
2023/08/22 16:34:30;;;;;;;4.85;1.70;;;23.60;1.00;;;;;;20816177;28;20066;-44
2023/08/22 16:44:31;;;;;;;5.25;1.77;;;23.60;1.00;;;;;;20841042;28;20595;-43
2023/08/22 16:54:32;;;;;;;3.85;1.50;;;23.40;1.00;;;;;;20862102;28;20527;-43
2023/08/22 17:04:32;;;;;;;3.58;1.60;;;23.20;1.00;;;;;;20860543;28;20048;-44
2023/08/22 17:14:33;;;;;;;4.43;1.63;;;23.00;1.00;;;;;;20829568;28;20623;-44
2023/08/22 17:24:33;;;;;;;4.18;1.90;;;22.80;1.00;;;;;;20839301;28;20723;-44
2023/08/22 17:34:34;;;;;;;5.47;1.45;;;22.60;1.00;;;;;;20838916;28;20050;-44
2023/08/22 17:44:34;;;;;;;3.85;1.30;;;22.40;1.00;;;;;;20835608;28;21923;-44
2023/08/22 17:54:35;;;;;;;2.45;1.27;;;22.20;1.00;;;;;;20785553;28;20504;-44
2023/08/22 18:04:35;;;;;;;3.70;1.27;;;21.80;1.00;;;;;;20790808;28;20061;-44
2023/08/22 18:14:37;;;;;;;1.45;0.60;;;21.60;1.00;;;;;;20805577;28;20580;-44
2023/08/22 18:24:37;;;;;;;1.02;0.52;;;21.70;1.00;;;;;;20811292;28;20482;-44
2023/08/22 18:34:40;;;;;;;1.58;0.75;;;21.40;1.00;;;;;;20802842;28;20045;-43
2023/08/22 18:44:40;;;;;;;2.33;1.15;;;21.10;1.00;;;;;;20800812;28;20041;-43
2023/08/22 18:54:41;;;;;;;3.15;1.50;;;20.70;1.00;;;;;;20812569;28;20319;-44
2023/08/22 19:04:41;;;;;;;3.88;1.50;;;20.50;1.00;;;;;;20804790;28;20094;-44
2023/08/22 19:14:42;;;;;;;3.25;1.60;;;20.30;1.00;;;;;;20784977;28;20351;-44
2023/08/22 19:24:42;;;;;;;2.60;1.50;;;20.00;1.00;;;;;;20802464;28;20124;-44
2023/08/22 19:34:43;;;;;;;4.75;2.38;;;19.70;1.00;;;;;;20796028;28;20049;-44
2023/08/22 19:44:43;;;;;;;2.60;1.73;;;19.40;1.00;;;;;;20813651;28;20103;-44
2023/08/22 19:54:44;;;;;;;3.37;1.77;;;19.10;1.00;;;;;;20805053;28;20055;-44
2023/08/22 20:04:45;;;;;;;4.60;1.90;;;18.90;1.00;;;;;;20803190;28;20041;-44
2023/08/22 20:14:46;;;;;;;3.95;1.95;;;18.70;1.00;;;;;;20792238;28;20037;-44
2023/08/22 20:24:46;;;;;;;3.63;2.30;;;18.50;1.00;;;;;;20833004;28;20041;-44
2023/08/22 20:34:48;;;;;;;4.45;2.40;;;18.30;1.00;;;;;;20825276;28;20135;-44
2023/08/22 20:44:48;;;;;;;4.32;2.67;;;18.20;1.00;;;;;;20825372;28;20605;-44
2023/08/22 20:54:49;;;;;;;4.93;2.28;;;18.10;1.00;;;;;;20848187;28;20298;-44
2023/08/22 21:04:50;;;;;;;4.25;2.53;;;17.90;1.00;;;;;;20834073;28;20037;-44
2023/08/22 21:14:50;;;;;;;4.22;2.53;;;17.80;1.00;;;;;;20836989;28;20044;-44
2023/08/22 21:24:51;;;;;;;4.93;3.03;;;17.70;3.30;;;;;;20843103;28;20049;-44
2023/08/22 21:34:52;;;;;;;6.85;4.20;;;17.50;1.00;;;;;;20819152;28;20135;-44
2023/08/22 21:44:52;;;;;;;5.50;3.67;;;17.50;8.50;;;;;;20810546;28;20033;-43
2023/08/22 21:54:53;;;;;;;6.63;3.53;;;17.50;7.10;;;;;;20818550;28;20195;-44
2023/08/22 22:04:53;;;;;;;5.97;3.58;;;17.30;13.60;;;;;;20812796;28;20036;-44
2023/08/22 22:14:54;;;;;;;5.38;2.97;;;17.20;19.60;;;;;;20812401;28;20061;-44
2023/08/22 22:24:54;;;;;;;5.57;2.83;;;17.10;16.60;;;;;;20817114;28;20134;-44
2023/08/22 22:34:55;;;;;;;5.30;2.95;;;16.90;17.50;;;;;;20827807;28;20041;-44
2023/08/22 22:44:56;;;;;;;5.28;3.08;;;16.90;24.00;;;;;;20806190;28;20079;-44
2023/08/22 22:54:56;;;;;;;5.20;2.95;;;16.80;24.10;;;;;;20814108;28;20044;-44
2023/08/22 23:04:57;;;;;;;5.50;3.30;;;16.70;24.00;;;;;;20811479;28;20116;-44
2023/08/22 23:14:58;;;;;;;4.50;3.13;;;16.60;25.60;;;;;;20810661;28;20056;-44
2023/08/22 23:24:58;;;;;;;5.33;3.10;;;16.50;24.70;;;;;;20821914;28;20037;-44
2023/08/22 23:35:01;;;;;;;4.88;2.90;;;16.50;31.00;;;;;;20810346;28;20110;-44
2023/08/22 23:45:03;;;;;;;4.43;2.90;;;16.30;33.60;;;;;;20811438;28;20116;-44
2023/08/22 23:55:05;;;;;;;6.78;3.50;;;16.30;38.10;;;;;;20818082;28;20049;-44
